Time;durP1;ratioP1;P1;durP2;ratioP2;P2;SDS_P1;SDS_P2;PMS_P1;PMS_P2;Temp;Humidity;BMP_temperature;BMP_pressure;BME280_temperature;BME280_humidity;BME280_pressure;Samples;Min_cycle;Max_cycle;Signal;HPM_P1;HPM_P2
2023/03/30 00:01:16;;;;;;;4.27;2.60;;;11.50;1.00;;;;;;5091011;28;20413;-74
2023/03/30 00:03:43;;;;;;;9.07;3.57;;;11.50;1.00;;;;;;5075477;28;20154;-74
2023/03/30 00:06:10;;;;;;;9.70;2.20;;;11.60;1.00;;;;;;5083442;28;20419;-74
2023/03/30 00:08:36;;;;;;;6.50;2.80;;;11.50;1.00;;;;;;5095372;28;20868;-74
2023/03/30 00:11:08;;;;;;;4.40;2.83;;;11.50;1.00;;;;;;5093150;28;20393;-75
2023/03/30 00:13:36;;;;;;;3.83;2.87;;;11.50;1.00;;;;;;5075031;28;20386;-74
2023/03/30 00:16:05;;;;;;;2.97;2.30;;;11.50;1.00;;;;;;5076168;28;20422;-74
2023/03/30 00:18:33;;;;;;;6.50;2.63;;;11.50;1.00;;;;;;5074932;28;20460;-74
2023/03/30 00:20:58;;;;;;;10.60;2.83;;;11.50;1.00;;;;;;5075812;28;20481;-74
2023/03/30 00:23:25;;;;;;;3.77;2.50;;;11.50;1.00;;;;;;5095118;28;20814;-74
2023/03/30 00:25:50;;;;;;;4.40;2.60;;;11.50;1.00;;;;;;5089775;28;20445;-74
2023/03/30 00:28:29;;;;;;;6.10;2.60;;;11.40;1.00;;;;;;5075144;28;20432;-81
2023/03/30 00:34:16;;;;;;;6.53;2.53;;;11.40;1.00;;;;;;5074799;28;20385;-81
2023/03/30 00:36:45;;;;;;;7.37;3.00;;;11.40;1.00;;;;;;5086688;28;20408;-82
2023/03/30 00:39:32;;;;;;;7.13;2.80;;;11.40;1.00;;;;;;5076598;28;20281;-81
2023/03/30 00:42:32;;;;;;;5.00;2.80;;;11.40;1.00;;;;;;5095393;28;20396;-82
2023/03/30 00:48:29;;;;;;;5.87;2.53;;;11.40;1.00;;;;;;5074531;28;20377;-82
2023/03/30 00:51:44;;;;;;;7.57;2.97;;;11.40;1.00;;;;;;5074398;28;20860;-82
2023/03/30 00:54:17;;;;;;;8.87;2.80;;;11.40;1.00;;;;;;5074535;28;20892;-82
2023/03/30 00:56:44;;;;;;;9.40;3.33;;;11.40;1.00;;;;;;5084830;28;20407;-74
2023/03/30 00:59:10;;;;;;;9.83;2.87;;;11.40;1.00;;;;;;5076178;28;20430;-74
2023/03/30 01:01:39;;;;;;;13.53;3.27;;;11.30;1.00;;;;;;5094645;28;20461;-74
2023/03/30 01:04:06;;;;;;;9.57;2.97;;;11.30;1.00;;;;;;5094647;28;20203;-74
2023/03/30 01:06:35;;;;;;;7.40;2.80;;;11.30;1.00;;;;;;5065092;28;20507;-73
2023/03/30 01:09:02;;;;;;;8.10;2.70;;;11.20;1.00;;;;;;5073944;28;20998;-74
2023/03/30 01:11:28;;;;;;;7.70;2.80;;;11.10;1.00;;;;;;5074215;28;20385;-74
2023/03/30 01:14:26;;;;;;;4.40;2.33;;;11.10;1.00;;;;;;5056449;28;20379;-82
2023/03/30 01:17:27;;;;;;;9.50;2.70;;;11.10;1.00;;;;;;5075174;28;20171;-82
2023/03/30 01:20:31;;;;;;;6.77;2.60;;;11.00;1.00;;;;;;5055911;28;20444;-82
2023/03/30 01:23:36;;;;;;;5.90;2.73;;;11.00;1.00;;;;;;5074146;28;20377;-81
2023/03/30 01:26:08;;;;;;;17.17;2.87;;;10.90;1.00;;;;;;5078967;28;20414;-82
2023/03/30 01:28:47;;;;;;;4.80;2.40;;;10.80;1.00;;;;;;5085817;28;20388;-74
2023/03/30 01:31:41;;;;;;;9.47;2.63;;;10.90;1.00;;;;;;5074008;28;20469;-74
2023/03/30 01:34:13;;;;;;;10.10;2.77;;;10.90;1.00;;;;;;5073929;28;20832;-74
2023/03/30 01:37:08;;;;;;;8.90;2.57;;;11.00;1.00;;;;;;5074704;28;20413;-74
2023/03/30 01:39:53;;;;;;;14.80;3.10;;;11.00;1.00;;;;;;5074057;28;20528;-74
2023/03/30 01:42:26;;;;;;;7.57;2.73;;;11.00;1.00;;;;;;5074273;28;20771;-81
2023/03/30 01:45:24;;;;;;;12.90;3.00;;;11.10;1.00;;;;;;5073583;28;20356;-81
2023/03/30 01:47:57;;;;;;;7.17;2.73;;;11.20;1.00;;;;;;5073844;28;20394;-82
2023/03/30 01:50:28;;;;;;;6.50;2.60;;;11.30;1.00;;;;;;5055975;28;20421;-82
2023/03/30 01:53:00;;;;;;;9.83;3.00;;;11.30;1.00;;;;;;5073662;28;20484;-82
2023/03/30 01:55:56;;;;;;;9.67;2.60;;;11.40;1.00;;;;;;5073770;28;20850;-82
2023/03/30 01:58:30;;;;;;;7.83;2.80;;;11.40;1.00;;;;;;5082073;28;20450;-74
2023/03/30 02:00:58;;;;;;;3.47;2.50;;;11.50;1.00;;;;;;5091937;28;20408;-74
2023/03/30 02:03:32;;;;;;;4.23;2.20;;;11.60;1.00;;;;;;5075469;28;20769;-74
2023/03/30 02:06:06;;;;;;;6.03;2.70;;;11.60;1.00;;;;;;5092102;28;20863;-74
2023/03/30 02:08:34;;;;;;;8.20;2.77;;;11.60;1.00;;;;;;5083900;28;20413;-74
2023/03/30 02:11:00;;;;;;;4.87;2.53;;;11.70;1.00;;;;;;5073325;28;20386;-74
2023/03/30 02:13:40;;;;;;;6.27;2.40;;;11.70;1.00;;;;;;5073705;28;20858;-82
2023/03/30 02:16:12;;;;;;;8.30;2.40;;;11.70;1.00;;;;;;5057751;28;20428;-82
2023/03/30 02:18:53;;;;;;;4.97;2.00;;;11.80;1.00;;;;;;5086981;28;20956;-82
2023/03/30 02:24:42;;;;;;;7.80;2.27;;;11.90;1.00;;;;;;5077226;28;20373;-82
2023/03/30 02:27:44;;;;;;;13.67;3.20;;;11.90;1.00;;;;;;5078061;28;20547;-82
2023/03/30 02:30:18;;;;;;;15.57;3.50;;;11.90;1.00;;;;;;5077142;28;20371;-81
2023/03/30 02:33:13;;;;;;;6.80;2.30;;;11.80;1.00;;;;;;5076989;28;20898;-82
2023/03/30 02:36:11;;;;;;;8.17;2.13;;;11.90;1.00;;;;;;5077389;28;20420;-82
2023/03/30 02:39:25;;;;;;;7.43;2.43;;;12.00;1.00;;;;;;5086785;28;20540;-82
2023/03/30 02:42:47;;;;;;;7.87;2.40;;;12.10;1.00;;;;;;5077052;28;20390;-82
2023/03/30 02:45:34;;;;;;;13.40;3.30;;;12.20;1.00;;;;;;5034984;28;20469;-82
2023/03/30 02:51:21;;;;;;;10.10;3.07;;;12.30;1.00;;;;;;5034783;28;20345;-82
2023/03/30 02:54:15;;;;;;;8.77;2.40;;;12.40;1.00;;;;;;5034974;28;20411;-82
2023/03/30 03:00:11;;;;;;;9.50;2.97;;;12.50;1.00;;;;;;5034903;28;20401;-82
2023/03/30 03:02:58;;;;;;;7.60;2.30;;;12.50;1.00;;;;;;5034691;28;20370;-82
2023/03/30 03:05:44;;;;;;;8.70;3.17;;;12.40;1.00;;;;;;5034815;28;20382;-82
2023/03/30 03:08:16;;;;;;;7.30;2.90;;;12.40;1.00;;;;;;5045538;28;20472;-82
2023/03/30 03:14:14;;;;;;;12.07;3.33;;;12.50;1.00;;;;;;5054888;28;20490;-74
2023/03/30 03:16:40;;;;;;;10.17;2.67;;;12.50;1.00;;;;;;5037003;28;20423;-74
2023/03/30 03:19:05;;;;;;;4.63;2.13;;;12.50;1.00;;;;;;5058296;28;20496;-74
2023/03/30 03:21:31;;;;;;;7.20;2.83;;;12.60;1.00;;;;;;5076038;28;20194;-74
2023/03/30 03:23:56;;;;;;;7.10;2.77;;;12.60;1.00;;;;;;5076040;28;20202;-74
2023/03/30 03:26:22;;;;;;;17.53;3.00;;;12.70;1.00;;;;;;5075966;28;20155;-74
2023/03/30 03:28:50;;;;;;;6.47;2.37;;;12.80;1.00;;;;;;5075783;28;20175;-82
2023/03/30 03:31:26;;;;;;;11.80;2.80;;;12.90;1.00;;;;;;5076222;28;20421;-82
2023/03/30 03:34:08;;;;;;;6.67;2.37;;;13.00;1.00;;;;;;5075834;28;20397;-82
2023/03/30 03:36:44;;;;;;;6.37;2.50;;;12.90;1.00;;;;;;5075926;28;20393;-82
2023/03/30 03:42:31;;;;;;;6.63;2.50;;;13.00;1.00;;;;;;5096125;28;20350;-82
2023/03/30 03:45:03;;;;;;;8.23;2.47;;;13.00;1.00;;;;;;5077994;28;20413;-82
2023/03/30 03:47:33;;;;;;;7.53;2.73;;;13.10;1.00;;;;;;5089923;28;20170;-82
2023/03/30 03:53:22;;;;;;;5.97;3.17;;;13.10;1.00;;;;;;5095779;28;20790;-83
2023/03/30 03:56:44;;;;;;;17.07;2.33;;;13.20;1.00;;;;;;5096084;28;20371;-83
2023/03/30 03:59:09;;;;;;;9.63;2.87;;;13.30;1.00;;;;;;5094255;28;20455;-74
2023/03/30 04:04:57;;;;;;;4.73;2.20;;;13.30;1.00;;;;;;5075682;28;20162;-85
2023/03/30 04:10:44;;;;;;;7.80;2.73;;;13.30;1.00;;;;;;5075568;28;20166;-84
2023/03/30 04:16:32;;;;;;;15.60;2.87;;;13.40;1.00;;;;;;5075247;28;20189;-84
2023/03/30 04:19:52;;;;;;;7.07;3.17;;;13.40;1.00;;;;;;5058272;28;20454;-84
2023/03/30 04:25:40;;;;;;;7.70;2.37;;;13.50;1.00;;;;;;5075396;28;20419;-84
2023/03/30 04:34:53;;;;;;;7.20;2.63;;;13.70;1.00;;;;;;5075106;28;20348;-84
2023/03/30 04:44:05;;;;;;;11.60;3.40;;;13.50;1.00;;;;;;5074884;28;20389;-86
2023/03/30 04:47:02;;;;;;;11.53;2.37;;;13.50;1.00;;;;;;5075326;28;20436;-86
2023/03/30 04:56:31;;;;;;;15.70;2.70;;;13.30;1.00;;;;;;5095023;28;20398;-86
2023/03/30 05:02:19;;;;;;;9.47;3.17;;;13.20;1.00;;;;;;5074620;28;20177;-85
2023/03/30 05:08:06;;;;;;;5.03;2.50;;;13.30;1.00;;;;;;5080194;28;20675;-84
2023/03/30 05:13:55;;;;;;;6.73;3.10;;;13.20;1.00;;;;;;5094796;28;20199;-85
2023/03/30 05:26:20;;;;;;;11.70;2.53;;;13.00;1.00;;;;;;5074247;28;20351;-84
2023/03/30 05:32:08;;;;;;;15.03;2.77;;;12.90;1.00;;;;;;5073857;28;20446;-84
2023/03/30 05:44:40;;;;;;;17.23;3.23;;;12.90;1.00;;;;;;5093618;28;20412;-86
2023/03/30 05:50:32;;;;;;;13.17;4.10;;;12.80;1.00;;;;;;5074017;28;20236;-86
2023/03/30 05:59:41;;;;;;;14.30;3.40;;;12.70;1.00;;;;;;5076674;28;20514;-83
2023/03/30 06:02:16;;;;;;;14.83;3.67;;;12.70;1.00;;;;;;5055839;28;20384;-84
2023/03/30 06:08:06;;;;;;;9.70;3.50;;;12.70;1.00;;;;;;5076845;28;20728;-84
2023/03/30 06:10:33;;;;;;;10.47;3.70;;;12.60;1.00;;;;;;5055589;28;20391;-84
2023/03/30 06:16:20;;;;;;;13.37;3.40;;;12.70;1.00;;;;;;5074030;28;20423;-84
2023/03/30 06:19:38;;;;;;;13.50;4.30;;;12.70;1.00;;;;;;5055386;28;20439;-84
2023/03/30 06:22:26;;;;;;;12.50;3.47;;;12.70;1.00;;;;;;5056491;28;20444;-84
2023/03/30 06:28:38;;;;;;;10.83;3.80;;;12.70;1.10;;;;;;5079874;28;20449;-84
2023/03/30 06:31:15;;;;;;;10.90;4.07;;;12.70;4.40;;;;;;5077779;28;20445;-84
2023/03/30 06:37:08;;;;;;;26.47;4.17;;;12.60;20.20;;;;;;5093343;28;20449;-84
2023/03/30 06:42:55;;;;;;;13.20;4.80;;;12.70;24.40;;;;;;5093430;28;20462;-84
2023/03/30 06:48:43;;;;;;;7.53;3.33;;;12.70;28.60;;;;;;5093699;28;20347;-84
2023/03/30 06:54:31;;;;;;;20.77;3.60;;;12.70;44.30;;;;;;5072921;28;20229;-84
2023/03/30 07:03:56;;;;;;;11.60;3.50;;;12.70;44.20;;;;;;5077820;28;20375;-84
2023/03/30 07:06:50;;;;;;;15.23;3.77;;;12.70;44.50;;;;;;5080510;28;20375;-84
2023/03/30 07:09:32;;;;;;;16.30;3.40;;;12.80;44.40;;;;;;5062017;28;20384;-81
2023/03/30 07:12:14;;;;;;;17.47;4.13;;;12.70;40.50;;;;;;5091010;28;20424;-76
2023/03/30 07:14:40;;;;;;;8.00;3.23;;;12.90;33.50;;;;;;5080835;28;20888;-76
2023/03/30 07:17:08;;;;;;;17.10;4.10;;;12.90;31.20;;;;;;5076512;28;20360;-74
2023/03/30 07:19:45;;;;;;;11.87;3.37;;;12.90;35.30;;;;;;5076298;28;20321;-74
2023/03/30 07:22:50;;;;;;;14.23;3.60;;;13.00;35.20;;;;;;5058027;28;20403;-74
2023/03/30 07:25:20;;;;;;;9.00;3.40;;;13.20;26.40;;;;;;5088229;28;20467;-80
2023/03/30 07:27:56;;;;;;;12.87;3.37;;;13.40;17.80;;;;;;5075997;28;20869;-80
2023/03/30 07:34:26;;;;;;;12.93;3.77;;;13.40;15.00;;;;;;5075465;28;20360;-80
2023/03/30 07:37:32;;;;;;;12.20;3.33;;;13.40;14.70;;;;;;5057935;28;20459;-80
2023/03/30 07:40:06;;;;;;;11.73;3.60;;;13.70;8.40;;;;;;5076052;28;20422;-81
2023/03/30 07:42:32;;;;;;;16.63;4.00;;;13.80;1.50;;;;;;5087141;28;20736;-80
2023/03/30 07:45:20;;;;;;;11.20;2.97;;;13.80;1.00;;;;;;5095889;28;20433;-81
2023/03/30 07:47:56;;;;;;;11.50;3.10;;;13.80;1.00;;;;;;5096083;28;20385;-80
2023/03/30 07:50:26;;;;;;;14.83;3.47;;;13.70;1.00;;;;;;5095447;28;20452;-80
2023/03/30 07:52:56;;;;;;;10.63;3.17;;;13.80;1.00;;;;;;5095683;28;20385;-80
2023/03/30 07:55:44;;;;;;;4.83;2.70;;;13.90;1.00;;;;;;5091973;28;20835;-80
2023/03/30 07:58:20;;;;;;;7.13;2.90;;;14.10;1.00;;;;;;5091684;28;20435;-80
2023/03/30 08:00:52;;;;;;;10.93;2.80;;;14.10;1.00;;;;;;5084356;28;20462;-80
2023/03/30 08:03:21;;;;;;;8.90;3.47;;;14.10;1.00;;;;;;5077492;28;20394;-81
2023/03/30 08:05:59;;;;;;;6.00;2.73;;;14.00;1.00;;;;;;5076581;28;20443;-80
2023/03/30 08:08:26;;;;;;;10.47;3.50;;;14.10;1.00;;;;;;5095788;28;20368;-80
2023/03/30 08:10:52;;;;;;;13.73;3.10;;;14.10;1.00;;;;;;5095906;28;20399;-81
2023/03/30 08:13:18;;;;;;;12.23;3.00;;;14.10;1.00;;;;;;5095174;28;20387;-81
2023/03/30 08:15:45;;;;;;;6.80;3.20;;;13.90;1.00;;;;;;5095545;28;20389;-79
2023/03/30 08:18:11;;;;;;;7.43;2.80;;;14.00;1.00;;;;;;5095475;28;20813;-80
2023/03/30 08:20:38;;;;;;;4.23;2.37;;;13.80;1.00;;;;;;5095384;28;20385;-73
2023/03/30 08:23:05;;;;;;;7.40;2.80;;;13.80;1.00;;;;;;5095163;28;20868;-73
2023/03/30 08:25:31;;;;;;;12.40;3.00;;;13.90;1.00;;;;;;5095049;28;20409;-73
2023/03/30 08:27:56;;;;;;;4.63;3.00;;;14.00;1.00;;;;;;5095191;28;20437;-73
2023/03/30 08:30:22;;;;;;;8.30;3.70;;;14.10;1.00;;;;;;5094872;28;20809;-73
2023/03/30 08:32:48;;;;;;;9.13;3.27;;;14.00;1.00;;;;;;5095262;28;20240;-73
2023/03/30 08:35:13;;;;;;;9.50;3.63;;;13.90;1.00;;;;;;5095159;28;20277;-73
2023/03/30 08:37:39;;;;;;;10.00;3.00;;;13.90;1.00;;;;;;5094789;28;20167;-73
2023/03/30 08:40:07;;;;;;;7.60;3.90;;;14.00;1.00;;;;;;5094699;28;20693;-73
2023/03/30 08:43:00;;;;;;;10.70;3.50;;;14.20;1.00;;;;;;5076406;28;20751;-73
2023/03/30 08:45:34;;;;;;;4.87;2.80;;;14.50;1.00;;;;;;5094570;28;20408;-73
2023/03/30 08:48:01;;;;;;;6.37;3.33;;;14.70;1.00;;;;;;5094919;28;20384;-73
2023/03/30 08:50:31;;;;;;;4.33;2.80;;;14.70;1.00;;;;;;5094571;28;20442;-73
2023/03/30 08:52:57;;;;;;;7.87;3.57;;;14.80;1.00;;;;;;5094538;28;20400;-73
2023/03/30 08:55:39;;;;;;;8.80;3.03;;;15.10;1.00;;;;;;5094443;28;20387;-73
2023/03/30 08:58:28;;;;;;;11.20;3.37;;;15.20;1.00;;;;;;5094653;28;20436;-73
2023/03/30 09:01:15;;;;;;;12.10;3.20;;;15.50;1.00;;;;;;5094758;28;20360;-73
2023/03/30 09:04:10;;;;;;;6.27;3.10;;;15.60;1.00;;;;;;5094234;28;20385;-73
2023/03/30 09:06:54;;;;;;;6.40;3.30;;;15.60;1.00;;;;;;5094550;28;20377;-73
2023/03/30 09:09:24;;;;;;;8.23;3.03;;;15.50;1.00;;;;;;5094228;28;20744;-73
2023/03/30 09:12:03;;;;;;;6.50;3.00;;;15.60;1.00;;;;;;5094270;28;20491;-72
2023/03/30 09:14:33;;;;;;;7.73;3.40;;;15.50;1.00;;;;;;5094456;28;20389;-72
2023/03/30 09:17:06;;;;;;;5.43;3.00;;;15.70;1.00;;;;;;5094743;28;20408;-73
2023/03/30 09:19:45;;;;;;;11.83;3.30;;;15.80;1.00;;;;;;5094136;28;20423;-72
2023/03/30 09:22:12;;;;;;;16.03;3.50;;;16.00;1.00;;;;;;5093805;28;20521;-72
2023/03/30 09:24:39;;;;;;;5.33;2.70;;;15.70;1.00;;;;;;5093943;28;20372;-72
2023/03/30 09:27:11;;;;;;;5.10;2.80;;;15.50;1.00;;;;;;5093623;28;20415;-72
2023/03/30 09:29:45;;;;;;;10.23;2.80;;;15.50;1.00;;;;;;5094211;28;20372;-72
2023/03/30 09:32:31;;;;;;;10.63;2.90;;;15.60;1.00;;;;;;5093736;28;20420;-72
2023/03/30 09:35:17;;;;;;;6.00;3.00;;;15.60;1.00;;;;;;5093654;28;20397;-72
2023/03/30 09:37:43;;;;;;;13.97;2.90;;;15.80;1.00;;;;;;5093971;28;20384;-72
2023/03/30 09:40:33;;;;;;;12.50;3.60;;;15.60;1.00;;;;;;5075510;28;20517;-72
2023/03/30 09:43:23;;;;;;;7.13;3.23;;;15.40;1.00;;;;;;5093808;28;20196;-73
2023/03/30 09:45:48;;;;;;;5.20;3.13;;;15.40;1.00;;;;;;5093790;28;20439;-73
2023/03/30 09:48:15;;;;;;;5.60;2.90;;;15.40;1.00;;;;;;5093970;28;20478;-73
2023/03/30 09:50:45;;;;;;;8.70;3.23;;;15.60;1.00;;;;;;5093837;28;20170;-72
2023/03/30 09:53:25;;;;;;;6.37;3.07;;;15.40;1.00;;;;;;5093628;28;20392;-72
2023/03/30 09:56:02;;;;;;;8.37;3.07;;;15.50;1.00;;;;;;5093854;28;20436;-73
2023/03/30 09:58:33;;;;;;;11.60;3.03;;;15.40;1.00;;;;;;5093544;28;20442;-72
2023/03/30 10:01:18;;;;;;;5.70;3.00;;;15.60;1.00;;;;;;5093836;28;20428;-72
2023/03/30 10:04:05;;;;;;;5.93;2.70;;;15.50;1.00;;;;;;5093881;28;20523;-72
2023/03/30 10:06:48;;;;;;;6.70;2.50;;;15.60;1.00;;;;;;5093799;28;20386;-73
2023/03/30 10:09:19;;;;;;;9.30;2.70;;;15.60;1.00;;;;;;5093486;28;20376;-73
2023/03/30 10:11:53;;;;;;;5.27;2.40;;;15.40;1.00;;;;;;5093781;28;20387;-73
2023/03/30 10:14:25;;;;;;;5.37;2.73;;;15.60;1.00;;;;;;5093511;28;20418;-72
2023/03/30 10:16:51;;;;;;;5.77;2.50;;;15.50;1.00;;;;;;5093789;28;20429;-72
2023/03/30 10:19:20;;;;;;;7.83;2.90;;;15.80;1.00;;;;;;5093658;28;20511;-73
2023/03/30 10:21:47;;;;;;;4.70;3.00;;;15.90;1.00;;;;;;5093506;28;20225;-73
2023/03/30 10:24:24;;;;;;;7.73;2.83;;;16.10;1.00;;;;;;5075178;28;20861;-73
2023/03/30 10:26:54;;;;;;;9.10;2.73;;;16.00;1.00;;;;;;5093632;28;20491;-73
2023/03/30 10:29:22;;;;;;;13.63;2.93;;;16.10;1.00;;;;;;5093616;28;20364;-73
2023/03/30 10:31:55;;;;;;;8.43;3.63;;;16.30;1.00;;;;;;5093937;28;20430;-72
2023/03/30 10:34:43;;;;;;;3.30;2.90;;;16.20;1.00;;;;;;5093316;28;20433;-73
2023/03/30 10:37:31;;;;;;;8.57;2.90;;;16.10;1.00;;;;;;5093552;28;20388;-73
2023/03/30 10:40:00;;;;;;;3.90;2.70;;;16.30;1.00;;;;;;5097361;28;20464;-73
2023/03/30 10:42:28;;;;;;;7.00;2.50;;;16.60;1.00;;;;;;5097104;28;20385;-73
2023/03/30 10:45:05;;;;;;;5.87;2.50;;;16.50;1.00;;;;;;5097332;28;20382;-73
2023/03/30 10:47:52;;;;;;;6.50;2.83;;;16.60;1.00;;;;;;5097274;28;20401;-73
2023/03/30 10:50:47;;;;;;;7.20;2.40;;;16.90;1.00;;;;;;5096943;28;20914;-73
2023/03/30 10:53:16;;;;;;;7.43;3.10;;;17.20;1.00;;;;;;5096878;28;20401;-73
2023/03/30 10:55:58;;;;;;;3.90;2.10;;;17.30;1.00;;;;;;5078644;28;20386;-74
2023/03/30 10:58:55;;;;;;;4.33;2.00;;;17.50;1.00;;;;;;5096744;28;20523;-73
2023/03/30 11:01:59;;;;;;;2.40;1.67;;;17.60;1.00;;;;;;5096744;28;20394;-73
2023/03/30 11:04:32;;;;;;;4.33;2.20;;;17.60;1.00;;;;;;5078738;28;20927;-73
2023/03/30 11:07:00;;;;;;;7.10;2.33;;;17.50;1.00;;;;;;5078528;28;20441;-73
2023/03/30 11:09:33;;;;;;;10.57;2.27;;;17.60;1.00;;;;;;5096630;28;20906;-73
2023/03/30 11:12:14;;;;;;;6.20;2.03;;;17.60;1.00;;;;;;5096572;28;20451;-74
2023/03/30 11:14:51;;;;;;;6.63;1.90;;;17.70;1.00;;;;;;5096488;28;20482;-77
2023/03/30 11:17:27;;;;;;;8.10;2.10;;;17.50;1.00;;;;;;5096839;28;20391;-74
2023/03/30 11:20:00;;;;;;;6.70;2.10;;;17.30;1.00;;;;;;5096612;28;20446;-73
2023/03/30 11:23:08;;;;;;;4.50;2.07;;;17.10;1.00;;;;;;5096265;28;20455;-75
2023/03/30 11:25:59;;;;;;;4.93;1.90;;;17.30;1.00;;;;;;5034323;28;20384;-81
2023/03/30 11:28:43;;;;;;;2.93;1.90;;;17.40;1.00;;;;;;5034402;28;20445;-80
2023/03/30 11:31:21;;;;;;;7.90;2.33;;;17.30;1.00;;;;;;5034137;28;20436;-83
2023/03/30 11:33:57;;;;;;;4.53;2.10;;;17.30;1.00;;;;;;5034455;28;20401;-80
2023/03/30 11:36:40;;;;;;;4.37;2.13;;;17.30;1.00;;;;;;5034011;28;20495;-79
2023/03/30 11:39:13;;;;;;;6.30;1.90;;;17.40;1.00;;;;;;5034103;28;20452;-79
2023/03/30 11:42:25;;;;;;;4.33;1.93;;;17.50;1.00;;;;;;5034147;28;20425;-78
2023/03/30 11:44:51;;;;;;;4.10;1.87;;;17.40;1.00;;;;;;4956013;29;20401;-79
2023/03/30 11:47:55;;;;;;;2.30;1.60;;;17.30;1.00;;;;;;4955528;29;20436;-79
2023/03/30 11:50:31;;;;;;;5.93;2.10;;;16.90;1.00;;;;;;4955419;28;20187;-82
2023/03/30 11:53:23;;;;;;;6.33;1.70;;;16.70;1.00;;;;;;4955542;29;20397;-82
2023/03/30 11:56:06;;;;;;;2.10;1.00;;;16.50;1.00;;;;;;4955636;29;20421;-81
2023/03/30 11:58:36;;;;;;;;;;;16.40;1.00;;;;;;4955998;29;20444;-82
2023/03/30 12:01:31;;;;;;;;;;;16.40;1.00;;;;;;4940010;29;20410;-81
2023/03/30 12:04:07;;;;;;;;;;;16.60;1.00;;;;;;4937001;29;19934;-82
2023/03/30 12:06:41;;;;;;;2.13;1.30;;;17.00;1.00;;;;;;4919857;29;20421;-82
2023/03/30 12:09:22;;;;;;;1.87;1.40;;;17.20;1.00;;;;;;4935481;29;20488;-82
2023/03/30 12:12:02;;;;;;;6.57;1.63;;;17.30;1.00;;;;;;4935608;29;20422;-82
2023/03/30 12:14:46;;;;;;;5.53;1.53;;;17.50;1.00;;;;;;4922445;28;20425;-82
2023/03/30 12:17:55;;;;;;;3.43;1.70;;;17.50;1.00;;;;;;5013434;28;20394;-83
2023/03/30 12:21:14;;;;;;;5.63;1.70;;;17.40;1.00;;;;;;5000553;28;20957;-82
2023/03/30 12:24:01;;;;;;;9.13;1.70;;;17.40;1.00;;;;;;5002067;28;20520;-79
2023/03/30 12:26:45;;;;;;;3.17;1.43;;;17.70;1.00;;;;;;4996709;28;20486;-79
2023/03/30 12:29:44;;;;;;;6.63;1.50;;;17.70;1.00;;;;;;5010905;28;20398;-79
2023/03/30 12:32:55;;;;;;;11.30;1.70;;;17.80;1.00;;;;;;4993540;28;20435;-80
2023/03/30 12:35:57;;;;;;;5.27;1.40;;;17.90;1.00;;;;;;4993469;28;20968;-81
2023/03/30 12:38:37;;;;;;;3.00;1.27;;;18.00;1.00;;;;;;4935550;29;20481;-80
2023/03/30 12:41:15;;;;;;;2.40;1.30;;;18.10;1.00;;;;;;4966297;28;20420;-79
2023/03/30 12:44:02;;;;;;;2.87;1.13;;;18.20;1.00;;;;;;4980594;28;20811;-80
2023/03/30 12:50:29;;;;;;;4.10;1.33;;;18.20;1.00;;;;;;4993218;28;20443;-80
2023/03/30 12:53:32;;;;;;;2.30;1.00;;;18.40;1.00;;;;;;4934672;29;20406;-81
2023/03/30 12:59:46;;;;;;;4.00;1.10;;;18.50;1.00;;;;;;4915988;29;20469;-78
2023/03/30 13:02:36;;;;;;;4.70;1.40;;;18.00;1.00;;;;;;4915763;29;20420;-78
2023/03/30 13:05:30;;;;;;;2.13;0.90;;;17.70;1.00;;;;;;4930591;29;20474;-76
2023/03/30 13:08:02;;;;;;;1.33;0.80;;;16.80;1.00;;;;;;4896069;29;20485;-75
2023/03/30 13:10:38;;;;;;;;;;;16.10;1.00;;;;;;4897002;29;20277;-76
2023/03/30 13:13:04;;;;;;;;;;;15.60;1.00;;;;;;4911498;28;19906;-76
2023/03/30 13:15:40;;;;;;;;;;;15.50;1.00;;;;;;4987021;28;20004;-75
2023/03/30 13:18:14;;;;;;;;;;;15.60;1.00;;;;;;4973939;28;19995;-75
2023/03/30 13:23:44;;;;;;;;;;;15.40;1.00;;;;;;4959193;28;21818;-75
2023/03/30 13:26:24;;;;;;;;;;;15.60;1.00;;;;;;4984705;28;20054;-77
2023/03/30 13:29:10;;;;;;;;;;;15.70;1.00;;;;;;4999014;28;19913;-77
2023/03/30 13:31:38;;;;;;;;;;;15.70;1.00;;;;;;4995818;28;19909;-76
2023/03/30 13:34:16;;;;;;;;;;;15.80;1.00;;;;;;5012855;28;20007;-75
2023/03/30 13:36:51;;;;;;;;;;;15.80;1.00;;;;;;5012389;28;19910;-76
2023/03/30 13:39:24;;;;;;;;;;;15.80;1.00;;;;;;5012910;28;20408;-76
2023/03/30 13:41:57;;;;;;;;;;;15.90;1.00;;;;;;5012190;28;19909;-76
2023/03/30 13:44:35;;;;;;;;;;;15.90;1.00;;;;;;5042461;28;19978;-76
2023/03/30 13:47:04;;;;;;;;;;;15.80;1.00;;;;;;5092585;28;19969;-76
2023/03/30 13:49:48;;;;;;;;;;;15.70;1.00;;;;;;5094849;28;19908;-77
2023/03/30 13:52:29;;;;;;;;;;;15.50;1.00;;;;;;5075136;28;19905;-76
2023/03/30 13:54:55;;;;;;;;;;;15.40;1.00;;;;;;5085741;28;20438;-76
2023/03/30 13:57:27;;;;;;;;;;;15.50;1.00;;;;;;5081151;28;19947;-76
2023/03/30 13:59:57;;;;;;;;;;;15.70;1.00;;;;;;5074176;28;19913;-76
2023/03/30 14:02:27;;;;;;;;;;;16.10;1.00;;;;;;5076539;28;19904;-76
2023/03/30 14:05:16;;;;;;;;;;;16.20;1.00;;;;;;5065240;28;19915;-75
2023/03/30 14:07:45;;;;;;;;;;;16.40;1.00;;;;;;5083563;28;19911;-74
2023/03/30 14:10:18;;;;;;;;;;;16.50;1.00;;;;;;5087679;28;19953;-74
2023/03/30 14:12:46;;;;;;;;;;;16.70;1.00;;;;;;5094687;28;20347;-74
2023/03/30 14:15:20;;;;;;;;;;;16.80;1.00;;;;;;5097365;28;19908;-74
2023/03/30 14:17:47;;;;;;;;;;;16.80;1.00;;;;;;5081968;28;19915;-73
2023/03/30 14:20:18;;;;;;;;;;;16.70;1.00;;;;;;5096118;28;19963;-74
2023/03/30 14:22:45;;;;;;;;;;;16.70;1.00;;;;;;5098258;28;19915;-73
2023/03/30 14:25:24;;;;;;;;;;;16.70;1.00;;;;;;5081498;28;20271;-74
2023/03/30 14:27:49;;;;;;;;;;;16.40;1.00;;;;;;5098126;28;19950;-74
2023/03/30 14:30:19;;;;;;;;;;;16.30;1.00;;;;;;5097816;28;19935;-73
2023/03/30 14:32:45;;;;;;;;;;;16.00;1.00;;;;;;5098103;28;19966;-74
2023/03/30 14:35:17;;;;;;;;;;;16.00;1.00;;;;;;5098249;28;19904;-74
2023/03/30 14:37:43;;;;;;;;;;;16.00;1.00;;;;;;5097872;28;19911;-75
2023/03/30 14:40:15;;;;;;;;;;;15.90;1.00;;;;;;5097599;28;19908;-74
2023/03/30 14:42:42;;;;;;;;;;;15.80;1.00;;;;;;5079271;28;20366;-74
2023/03/30 14:45:08;;;;;;;;;;;15.70;1.00;;;;;;5093558;28;19977;-74
2023/03/30 14:47:38;;;;;;;;;;;15.50;1.00;;;;;;5077091;28;19908;-75
2023/03/30 14:50:07;;;;;;;;;;;15.40;1.00;;;;;;5079557;28;19904;-75
2023/03/30 14:52:39;;;;;;;;;;;15.40;1.00;;;;;;5097655;28;19992;-75
2023/03/30 14:55:07;;;;;;;;;;;15.40;1.00;;;;;;5080821;28;19915;-75
2023/03/30 14:57:36;;;;;;;;;;;15.50;1.00;;;;;;5079945;28;19916;-75
2023/03/30 15:00:12;;;;;;;;;;;15.60;1.00;;;;;;5097487;28;19915;-75
2023/03/30 15:02:45;;;;;;;;;;;15.50;1.00;;;;;;5088771;28;20392;-75
2023/03/30 15:05:18;;;;;;;;;;;15.40;1.00;;;;;;5077450;28;19908;-75
2023/03/30 15:07:47;;;;;;;;;;;15.40;1.00;;;;;;5084119;28;19912;-76
2023/03/30 15:10:46;;;;;;;;;;;15.20;1.00;;;;;;5097019;28;19904;-76
2023/03/30 15:13:40;;;;;;;;;;;15.00;1.00;;;;;;5034221;28;20312;-76
2023/03/30 15:16:22;;;;;;;;;;;15.00;1.00;;;;;;5026142;28;20378;-76
2023/03/30 15:18:52;;;;;;;;;;;15.30;1.00;;;;;;5016045;28;20412;-76
2023/03/30 15:21:18;;;;;;;;;;;16.10;1.00;;;;;;5015588;28;19916;-76
2023/03/30 15:24:02;;;;;;;;;;;17.70;1.00;;;;;;5028006;28;19913;-85
2023/03/30 15:26:56;;;;;;;;;;;19.60;1.00;;;;;;5034765;28;19913;-87
2023/03/30 15:29:56;;;;;;;;;;;21.00;1.00;;;;;;5018118;28;19909;-87
2023/03/30 15:35:33;;;;;;;;;;;22.10;1.00;;;;;;5019861;28;20052;-88
2023/03/30 15:41:02;;;;;;;;;;;22.90;1.00;;;;;;5023622;28;19948;-89
2023/03/30 15:46:31;;;;;;;;;;;22.40;1.00;;;;;;5026970;28;20446;-87
2023/03/30 15:49:32;;;;;;;;;;;22.30;1.00;;;;;;5058641;28;19908;-89
2023/03/30 15:52:07;;;;;;;;;;;22.40;1.00;;;;;;5079419;28;19904;-85
2023/03/30 15:57:40;;;;;;;;;;;21.10;1.00;;;;;;5081119;28;20402;-89
2023/03/30 16:03:11;;;;;;;;;;;19.50;1.00;;;;;;5076559;28;19911;-90
2023/03/30 16:05:37;;;;;;;;;;;18.40;1.00;;;;;;5073896;28;19952;-85
2023/03/30 16:08:04;;;;;;;;;;;17.80;1.00;;;;;;5076951;28;19912;-89
2023/03/30 16:10:30;;;;;;;;;;;17.10;1.00;;;;;;5058632;28;19912;-89
2023/03/30 16:15:59;;;;;;;;;;;17.70;1.00;;;;;;5076686;28;19927;-91
2023/03/30 16:18:26;;;;;;;;;;;18.80;1.00;;;;;;5071477;28;20360;-83
2023/03/30 16:23:54;;;;;;;;;;;20.00;1.00;;;;;;5095573;28;19953;-87
2023/03/30 16:32:25;;;;;;;;;;;17.70;1.00;;;;;;5095945;28;19962;-86
2023/03/30 16:34:56;;;;;;;;;;;17.00;1.00;;;;;;5085091;28;19912;-86
2023/03/30 16:43:38;;;;;;;;;;;17.00;1.00;;;;;;5075582;28;19910;-85
2023/03/30 16:52:11;;;;;;;;;;;16.70;1.00;;;;;;5096065;28;19911;-87
2023/03/30 16:57:40;;;;;;;;;;;16.40;1.00;;;;;;5081446;28;20330;-88
2023/03/30 17:03:08;;;;;;;;;;;17.20;1.00;;;;;;5095712;28;19912;-87
2023/03/30 17:09:02;;;;;;;;;;;17.50;1.00;;;;;;5078567;28;19915;-86
2023/03/30 17:11:50;;;;;;;;;;;17.40;1.00;;;;;;5070375;28;19987;-86
2023/03/30 17:14:22;;;;;;;;;;;17.00;1.00;;;;;;5095060;28;19938;-91
2023/03/30 17:16:50;;;;;;;;;;;16.60;1.00;;;;;;5076815;28;19927;-83
2023/03/30 17:22:20;;;;;;;;;;;16.10;1.00;;;;;;5095921;28;20000;-92
2023/03/30 17:24:45;;;;;;;;;;;15.80;1.00;;;;;;5067142;28;20003;-91
2023/03/30 17:27:38;;;;;;;;;;;15.50;1.00;;;;;;5057349;28;19960;-89
2023/03/30 17:30:23;;;;;;;;;;;15.20;1.00;;;;;;5058400;28;19946;-87